sensor_id;sensor_type;location;lat;lon;timestamp;pressure;altitude;pressure_sealevel;temperature;humidity
64844;BME280;51310;52.198;5.422;2023-03-15T00:02:05;100934.66;;;0.19;100.00
64844;BME280;51310;52.198;5.422;2023-03-15T00:04:31;100936.97;;;0.18;100.00
64844;BME280;51310;52.198;5.422;2023-03-15T00:06:57;100938.22;;;0.09;100.00
64844;BME280;51310;52.198;5.422;2023-03-15T00:09:23;100938.78;;;0.01;100.00
64844;BME280;51310;52.198;5.422;2023-03-15T00:11:51;100936.56;;;-0.09;100.00
64844;BME280;51310;52.198;5.422;2023-03-15T00:14:19;100937.81;;;-0.18;100.00
64844;BME280;51310;52.198;5.422;2023-03-15T00:16:45;100941.78;;;-0.26;100.00
64844;BME280;51310;52.198;5.422;2023-03-15T00:19:12;100948.53;;;-0.32;100.00
64844;BME280;51310;52.198;5.422;2023-03-15T00:21:39;100935.22;;;-0.37;100.00
64844;BME280;51310;52.198;5.422;2023-03-15T00:24:10;100952.94;;;-0.37;100.00
64844;BME280;51310;52.198;5.422;2023-03-15T00:26:37;100955.19;;;-0.33;100.00
64844;BME280;51310;52.198;5.422;2023-03-15T00:29:03;100958.22;;;-0.35;100.00
64844;BME280;51310;52.198;5.422;2023-03-15T00:31:29;100955.25;;;-0.38;100.00
64844;BME280;51310;52.198;5.422;2023-03-15T00:33:55;100965.38;;;-0.38;100.00
64844;BME280;51310;52.198;5.422;2023-03-15T00:36:22;100969.06;;;-0.42;100.00
64844;BME280;51310;52.198;5.422;2023-03-15T00:38:51;100967.44;;;-0.42;100.00
64844;BME280;51310;52.198;5.422;2023-03-15T00:41:20;100969.34;;;-0.46;100.00
64844;BME280;51310;52.198;5.422;2023-03-15T00:43:46;100955.78;;;-0.47;100.00
64844;BME280;51310;52.198;5.422;2023-03-15T00:46:13;100973.25;;;-0.48;100.00
64844;BME280;51310;52.198;5.422;2023-03-15T00:48:39;100968.44;;;-0.47;100.00
64844;BME280;51310;52.198;5.422;2023-03-15T00:51:16;100978.06;;;-0.44;100.00
64844;BME280;51310;52.198;5.422;2023-03-15T00:53:45;100972.78;;;-0.46;100.00
64844;BME280;51310;52.198;5.422;2023-03-15T00:56:18;100977.56;;;-0.42;100.00
64844;BME280;51310;52.198;5.422;2023-03-15T00:58:44;100988.13;;;-0.38;100.00
64844;BME280;51310;52.198;5.422;2023-03-15T01:01:17;100976.66;;;-0.42;100.00
64844;BME280;51310;52.198;5.422;2023-03-15T01:03:44;100971.13;;;-0.39;100.00
64844;BME280;51310;52.198;5.422;2023-03-15T01:06:17;100981.88;;;-0.35;100.00
64844;BME280;51310;52.198;5.422;2023-03-15T01:08:44;100979.41;;;-0.40;100.00
64844;BME280;51310;52.198;5.422;2023-03-15T01:11:16;100995.50;;;-0.40;100.00
64844;BME280;51310;52.198;5.422;2023-03-15T01:13:43;100997.78;;;-0.42;100.00
64844;BME280;51310;52.198;5.422;2023-03-15T01:16:12;101001.28;;;-0.47;100.00
64844;BME280;51310;52.198;5.422;2023-03-15T01:18:39;101002.69;;;-0.49;100.00
64844;BME280;51310;52.198;5.422;2023-03-15T01:21:08;101001.97;;;-0.48;100.00
64844;BME280;51310;52.198;5.422;2023-03-15T01:23:34;101004.78;;;-0.52;100.00
64844;BME280;51310;52.198;5.422;2023-03-15T01:26:01;101006.59;;;-0.51;100.00
64844;BME280;51310;52.198;5.422;2023-03-15T01:28:28;101008.91;;;-0.52;100.00
64844;BME280;51310;52.198;5.422;2023-03-15T01:30:54;101002.91;;;-0.47;100.00
64844;BME280;51310;52.198;5.422;2023-03-15T01:33:21;101011.19;;;-0.48;100.00
64844;BME280;51310;52.198;5.422;2023-03-15T01:35:48;101022.00;;;-0.49;100.00
64844;BME280;51310;52.198;5.422;2023-03-15T01:38:14;101017.16;;;-0.48;100.00
64844;BME280;51310;52.198;5.422;2023-03-15T01:40:41;101025.41;;;-0.43;100.00
64844;BME280;51310;52.198;5.422;2023-03-15T01:45:52;101026.00;;;-0.33;100.00
64844;BME280;51310;52.198;5.422;2023-03-15T01:48:23;101026.22;;;-0.31;100.00
64844;BME280;51310;52.198;5.422;2023-03-15T01:50:51;101031.44;;;-0.24;100.00
64844;BME280;51310;52.198;5.422;2023-03-15T01:53:21;101035.81;;;-0.23;100.00
64844;BME280;51310;52.198;5.422;2023-03-15T01:55:47;101038.75;;;-0.20;100.00
64844;BME280;51310;52.198;5.422;2023-03-15T01:58:14;101039.00;;;-0.18;100.00
64844;BME280;51310;52.198;5.422;2023-03-15T02:00:40;101034.84;;;-0.18;100.00
64844;BME280;51310;52.198;5.422;2023-03-15T02:03:17;101037.31;;;-0.12;100.00
64844;BME280;51310;52.198;5.422;2023-03-15T02:05:51;101050.63;;;-0.08;100.00
64844;BME280;51310;52.198;5.422;2023-03-15T02:08:24;101038.63;;;-0.03;100.00
64844;BME280;51310;52.198;5.422;2023-03-15T02:10:55;101036.19;;;-0.14;100.00
64844;BME280;51310;52.198;5.422;2023-03-15T02:13:25;101044.47;;;-0.15;100.00
64844;BME280;51310;52.198;5.422;2023-03-15T02:15:53;101047.75;;;-0.22;100.00
64844;BME280;51310;52.198;5.422;2023-03-15T02:18:21;101047.34;;;-0.31;100.00
64844;BME280;51310;52.198;5.422;2023-03-15T02:23:22;101051.50;;;-0.31;100.00
64844;BME280;51310;52.198;5.422;2023-03-15T02:28:20;101063.91;;;-0.33;100.00
64844;BME280;51310;52.198;5.422;2023-03-15T02:30:47;101063.00;;;-0.33;100.00
64844;BME280;51310;52.198;5.422;2023-03-15T02:33:26;101062.63;;;-0.42;100.00
64844;BME280;51310;52.198;5.422;2023-03-15T02:35:54;101065.16;;;-0.42;100.00
64844;BME280;51310;52.198;5.422;2023-03-15T02:38:20;101071.81;;;-0.43;100.00
64844;BME280;51310;52.198;5.422;2023-03-15T02:40:51;101075.91;;;-0.37;100.00
64844;BME280;51310;52.198;5.422;2023-03-15T02:43:23;101083.06;;;-0.40;100.00
64844;BME280;51310;52.198;5.422;2023-03-15T02:45:50;101086.50;;;-0.40;100.00
64844;BME280;51310;52.198;5.422;2023-03-15T02:48:17;101085.38;;;-0.42;100.00
64844;BME280;51310;52.198;5.422;2023-03-15T02:50:43;101087.94;;;-0.48;100.00
64844;BME280;51310;52.198;5.422;2023-03-15T02:53:09;101087.53;;;-0.56;100.00
64844;BME280;51310;52.198;5.422;2023-03-15T02:55:37;101102.25;;;-0.54;100.00
64844;BME280;51310;52.198;5.422;2023-03-15T02:58:03;101100.88;;;-0.57;100.00
64844;BME280;51310;52.198;5.422;2023-03-15T03:00:29;101103.84;;;-0.54;100.00
64844;BME280;51310;52.198;5.422;2023-03-15T03:02:55;101115.53;;;-0.49;100.00
64844;BME280;51310;52.198;5.422;2023-03-15T03:05:22;101117.84;;;-0.51;100.00
64844;BME280;51310;52.198;5.422;2023-03-15T03:07:47;101116.69;;;-0.47;100.00
64844;BME280;51310;52.198;5.422;2023-03-15T03:10:17;101128.88;;;-0.50;100.00
64844;BME280;51310;52.198;5.422;2023-03-15T03:12:43;101126.41;;;-0.62;100.00
64844;BME280;51310;52.198;5.422;2023-03-15T03:15:10;101134.00;;;-0.62;100.00
64844;BME280;51310;52.198;5.422;2023-03-15T03:17:36;101140.25;;;-0.71;100.00
64844;BME280;51310;52.198;5.422;2023-03-15T03:20:08;101141.88;;;-0.71;100.00
64844;BME280;51310;52.198;5.422;2023-03-15T03:22:36;101154.94;;;-0.68;100.00
64844;BME280;51310;52.198;5.422;2023-03-15T03:25:03;101151.69;;;-0.67;100.00
64844;BME280;51310;52.198;5.422;2023-03-15T03:27:29;101153.81;;;-0.76;100.00
64844;BME280;51310;52.198;5.422;2023-03-15T03:29:55;101166.47;;;-0.81;100.00
64844;BME280;51310;52.198;5.422;2023-03-15T03:32:21;101169.91;;;-0.81;100.00
64844;BME280;51310;52.198;5.422;2023-03-15T03:34:47;101173.16;;;-0.82;100.00
64844;BME280;51310;52.198;5.422;2023-03-15T03:37:18;101176.59;;;-0.81;100.00
64844;BME280;51310;52.198;5.422;2023-03-15T03:39:43;101180.94;;;-0.75;100.00
64844;BME280;51310;52.198;5.422;2023-03-15T03:42:09;101186.22;;;-0.73;100.00
64844;BME280;51310;52.198;5.422;2023-03-15T03:44:35;101185.78;;;-0.82;100.00
64844;BME280;51310;52.198;5.422;2023-03-15T03:47:01;101195.19;;;-0.75;100.00
64844;BME280;51310;52.198;5.422;2023-03-15T03:49:27;101193.31;;;-0.76;100.00
64844;BME280;51310;52.198;5.422;2023-03-15T03:51:52;101200.25;;;-0.87;100.00
64844;BME280;51310;52.198;5.422;2023-03-15T03:54:18;101201.63;;;-0.89;100.00
64844;BME280;51310;52.198;5.422;2023-03-15T03:56:47;101205.78;;;-0.89;100.00
64844;BME280;51310;52.198;5.422;2023-03-15T03:59:13;101203.25;;;-0.84;100.00
64844;BME280;51310;52.198;5.422;2023-03-15T04:01:40;101214.69;;;-0.80;100.00
64844;BME280;51310;52.198;5.422;2023-03-15T04:04:07;101218.63;;;-0.82;100.00
64844;BME280;51310;52.198;5.422;2023-03-15T04:06:33;101211.06;;;-0.82;100.00
64844;BME280;51310;52.198;5.422;2023-03-15T04:08:58;101222.97;;;-0.81;100.00
64844;BME280;51310;52.198;5.422;2023-03-15T04:11:24;101226.88;;;-0.77;100.00
64844;BME280;51310;52.198;5.422;2023-03-15T04:13:54;101226.88;;;-0.77;100.00
64844;BME280;51310;52.198;5.422;2023-03-15T04:16:20;101228.03;;;-0.81;100.00
64844;BME280;51310;52.198;5.422;2023-03-15T04:18:46;101236.31;;;-0.82;100.00
64844;BME280;51310;52.198;5.422;2023-03-15T04:21:12;101242.97;;;-0.83;100.00
64844;BME280;51310;52.198;5.422;2023-03-15T04:23:38;101239.31;;;-0.90;100.00
64844;BME280;51310;52.198;5.422;2023-03-15T04:26:04;101242.28;;;-0.87;100.00
64844;BME280;51310;52.198;5.422;2023-03-15T04:28:30;101237.72;;;-0.84;100.00
64844;BME280;51310;52.198;5.422;2023-03-15T04:30:57;101242.97;;;-0.77;100.00
64844;BME280;51310;52.198;5.422;2023-03-15T04:33:27;101257.41;;;-0.70;100.00
64844;BME280;51310;52.198;5.422;2023-03-15T04:35:53;101255.59;;;-0.71;100.00
64844;BME280;51310;52.198;5.422;2023-03-15T04:38:19;101262.28;;;-0.77;100.00
64844;BME280;51310;52.198;5.422;2023-03-15T04:40:53;101263.22;;;-0.88;100.00
64844;BME280;51310;52.198;5.422;2023-03-15T04:43:22;101274.69;;;-0.90;100.00
64844;BME280;51310;52.198;5.422;2023-03-15T04:45:48;101273.09;;;-0.90;100.00
64844;BME280;51310;52.198;5.422;2023-03-15T04:48:16;101278.56;;;-0.87;100.00
64844;BME280;51310;52.198;5.422;2023-03-15T04:50:41;101276.75;;;-0.93;100.00
64844;BME280;51310;52.198;5.422;2023-03-15T04:53:07;101282.28;;;-0.90;100.00
64844;BME280;51310;52.198;5.422;2023-03-15T04:55:33;101283.41;;;-0.83;100.00
64844;BME280;51310;52.198;5.422;2023-03-15T04:57:58;101277.66;;;-0.87;100.00
64844;BME280;51310;52.198;5.422;2023-03-15T05:00:24;101283.19;;;-0.84;100.00
64844;BME280;51310;52.198;5.422;2023-03-15T05:02:50;101294.19;;;-0.78;100.00
64844;BME280;51310;52.198;5.422;2023-03-15T05:05:21;101290.06;;;-0.83;100.00
64844;BME280;51310;52.198;5.422;2023-03-15T05:07:47;101305.47;;;-0.87;100.00
64844;BME280;51310;52.198;5.422;2023-03-15T05:10:13;101310.03;;;-0.79;100.00
64844;BME280;51310;52.198;5.422;2023-03-15T05:12:40;101323.38;;;-0.86;100.00
64844;BME280;51310;52.198;5.422;2023-03-15T05:15:06;101327.06;;;-0.84;100.00
64844;BME280;51310;52.198;5.422;2023-03-15T05:17:32;101332.53;;;-0.69;100.00
64844;BME280;51310;52.198;5.422;2023-03-15T05:19:58;101336.19;;;-0.67;100.00
64844;BME280;51310;52.198;5.422;2023-03-15T05:22:26;101337.59;;;-0.69;100.00
64844;BME280;51310;52.198;5.422;2023-03-15T05:24:52;101338.28;;;-0.65;100.00
64844;BME280;51310;52.198;5.422;2023-03-15T05:27:18;101344.50;;;-0.63;100.00
64844;BME280;51310;52.198;5.422;2023-03-15T05:29:44;101341.50;;;-0.66;100.00
64844;BME280;51310;52.198;5.422;2023-03-15T05:32:10;101349.97;;;-0.65;100.00
64844;BME280;51310;52.198;5.422;2023-03-15T05:34:36;101345.16;;;-0.64;100.00
64844;BME280;51310;52.198;5.422;2023-03-15T05:37:02;101349.97;;;-0.65;100.00
64844;BME280;51310;52.198;5.422;2023-03-15T05:39:27;101343.34;;;-0.65;100.00
64844;BME280;51310;52.198;5.422;2023-03-15T05:41:54;101354.59;;;-0.68;100.00
64844;BME280;51310;52.198;5.422;2023-03-15T05:44:19;101358.97;;;-0.78;100.00
64844;BME280;51310;52.198;5.422;2023-03-15T05:46:45;101350.25;;;-0.92;100.00
64844;BME280;51310;52.198;5.422;2023-03-15T05:49:11;101349.81;;;-0.95;100.00
64844;BME280;51310;52.198;5.422;2023-03-15T05:51:37;101351.88;;;-0.92;100.00
64844;BME280;51310;52.198;5.422;2023-03-15T05:54:03;101356.47;;;-0.84;100.00
64844;BME280;51310;52.198;5.422;2023-03-15T05:56:28;101370.00;;;-0.89;100.00
64844;BME280;51310;52.198;5.422;2023-03-15T05:58:54;101367.25;;;-0.91;100.00
64844;BME280;51310;52.198;5.422;2023-03-15T06:01:20;101373.22;;;-0.90;100.00
64844;BME280;51310;52.198;5.422;2023-03-15T06:03:46;101385.63;;;-0.97;100.00
64844;BME280;51310;52.198;5.422;2023-03-15T06:06:11;101385.41;;;-0.99;100.00
64844;BME280;51310;52.198;5.422;2023-03-15T06:08:37;101393.88;;;-1.04;100.00
64844;BME280;51310;52.198;5.422;2023-03-15T06:11:03;101399.84;;;-0.98;100.00
64844;BME280;51310;52.198;5.422;2023-03-15T06:13:28;101407.44;;;-0.87;100.00
64844;BME280;51310;52.198;5.422;2023-03-15T06:15:54;101409.53;;;-0.84;100.00
64844;BME280;51310;52.198;5.422;2023-03-15T06:18:20;101418.72;;;-0.90;100.00
64844;BME280;51310;52.198;5.422;2023-03-15T06:20:46;101423.53;;;-0.86;100.00
64844;BME280;51310;52.198;5.422;2023-03-15T06:23:11;101428.59;;;-0.86;100.00
64844;BME280;51310;52.198;5.422;2023-03-15T06:25:37;101429.25;;;-0.98;100.00
64844;BME280;51310;52.198;5.422;2023-03-15T06:28:03;101435.22;;;-0.98;100.00
64844;BME280;51310;52.198;5.422;2023-03-15T06:30:28;101437.09;;;-0.97;100.00
64844;BME280;51310;52.198;5.422;2023-03-15T06:32:55;101429.94;;;-0.99;100.00
64844;BME280;51310;52.198;5.422;2023-03-15T06:35:20;101438.91;;;-0.96;100.00
64844;BME280;51310;52.198;5.422;2023-03-15T06:37:47;101449.72;;;-0.97;100.00
64844;BME280;51310;52.198;5.422;2023-03-15T06:40:13;101449.91;;;-1.07;100.00
64844;BME280;51310;52.198;5.422;2023-03-15T06:42:39;101450.81;;;-1.06;100.00
64844;BME280;51310;52.198;5.422;2023-03-15T06:45:08;101448.31;;;-1.12;100.00
64844;BME280;51310;52.198;5.422;2023-03-15T06:47:34;101450.59;;;-1.02;100.00
64844;BME280;51310;52.198;5.422;2023-03-15T06:50:00;101458.66;;;-1.05;100.00
64844;BME280;51310;52.198;5.422;2023-03-15T06:52:27;101471.97;;;-0.89;100.00
64844;BME280;51310;52.198;5.422;2023-03-15T06:54:53;101478.44;;;-0.85;100.00
64844;BME280;51310;52.198;5.422;2023-03-15T06:57:18;101480.50;;;-0.88;100.00
64844;BME280;51310;52.198;5.422;2023-03-15T06:59:44;101485.09;;;-0.80;100.00
64844;BME280;51310;52.198;5.422;2023-03-15T07:02:16;101486.25;;;-0.61;100.00
64844;BME280;51310;52.198;5.422;2023-03-15T07:04:43;101484.66;;;-0.49;100.00
64844;BME280;51310;52.198;5.422;2023-03-15T07:07:11;101492.91;;;-0.50;100.00
64844;BME280;51310;52.198;5.422;2023-03-15T07:09:38;101488.56;;;-0.57;100.00
64844;BME280;51310;52.198;5.422;2023-03-15T07:12:04;101496.38;;;-0.61;100.00
64844;BME280;51310;52.198;5.422;2023-03-15T07:14:32;101495.00;;;-0.59;100.00
64844;BME280;51310;52.198;5.422;2023-03-15T07:16:58;101496.16;;;-0.51;100.00
64844;BME280;51310;52.198;5.422;2023-03-15T07:19:24;101499.13;;;-0.48;100.00
64844;BME280;51310;52.198;5.422;2023-03-15T07:21:49;101513.38;;;-0.32;100.00
64844;BME280;51310;52.198;5.422;2023-03-15T07:24:16;101514.53;;;-0.30;100.00
64844;BME280;51310;52.198;5.422;2023-03-15T07:26:43;101520.06;;;-0.32;100.00
64844;BME280;51310;52.198;5.422;2023-03-15T07:29:09;101531.56;;;-0.23;100.00
64844;BME280;51310;52.198;5.422;2023-03-15T07:31:34;101534.53;;;-0.20;100.00
64844;BME280;51310;52.198;5.422;2023-03-15T07:34:00;101531.78;;;-0.10;100.00
64844;BME280;51310;52.198;5.422;2023-03-15T07:36:26;101523.72;;;-0.02;100.00
64844;BME280;51310;52.198;5.422;2023-03-15T07:38:51;101525.53;;;-0.07;100.00
64844;BME280;51310;52.198;5.422;2023-03-15T07:41:17;101529.47;;;-0.03;100.00
64844;BME280;51310;52.198;5.422;2023-03-15T07:43:43;101537.03;;;-0.03;100.00
64844;BME280;51310;52.198;5.422;2023-03-15T07:46:08;101543.50;;;0.01;100.00
64844;BME280;51310;52.198;5.422;2023-03-15T07:48:34;101539.78;;;0.04;100.00
64844;BME280;51310;52.198;5.422;2023-03-15T07:51:00;101542.09;;;0.08;100.00
64844;BME280;51310;52.198;5.422;2023-03-15T07:53:25;101554.28;;;0.16;100.00
64844;BME280;51310;52.198;5.422;2023-03-15T07:55:51;101550.34;;;0.24;100.00
64844;BME280;51310;52.198;5.422;2023-03-15T07:58:17;101554.03;;;0.26;100.00
64844;BME280;51310;52.198;5.422;2023-03-15T08:00:43;101559.78;;;0.31;100.00
64844;BME280;51310;52.198;5.422;2023-03-15T08:03:09;101565.53;;;0.35;100.00
64844;BME280;51310;52.198;5.422;2023-03-15T08:05:35;101569.63;;;0.40;100.00
64844;BME280;51310;52.198;5.422;2023-03-15T08:08:01;101568.25;;;0.48;100.00
64844;BME280;51310;52.198;5.422;2023-03-15T08:10:27;101576.97;;;0.61;100.00
64844;BME280;51310;52.198;5.422;2023-03-15T08:12:53;101583.16;;;0.69;100.00
64844;BME280;51310;52.198;5.422;2023-03-15T08:15:19;101583.59;;;0.72;100.00
64844;BME280;51310;52.198;5.422;2023-03-15T08:17:47;101585.22;;;0.72;100.00
64844;BME280;51310;52.198;5.422;2023-03-15T08:20:15;101589.09;;;0.75;100.00
64844;BME280;51310;52.198;5.422;2023-03-15T08:22:43;101588.84;;;0.85;100.00
64844;BME280;51310;52.198;5.422;2023-03-15T08:25:12;101586.44;;;1.03;100.00
64844;BME280;51310;52.198;5.422;2023-03-15T08:27:38;101587.75;;;1.24;100.00
64844;BME280;51310;52.198;5.422;2023-03-15T08:30:05;101597.88;;;1.24;100.00
64844;BME280;51310;52.198;5.422;2023-03-15T08:32:31;101598.06;;;1.31;100.00
64844;BME280;51310;52.198;5.422;2023-03-15T08:34:57;101602.41;;;1.38;100.00
64844;BME280;51310;52.198;5.422;2023-03-15T08:37:23;101597.72;;;1.52;100.00
64844;BME280;51310;52.198;5.422;2023-03-15T08:39:49;101612.22;;;1.53;100.00
64844;BME280;51310;52.198;5.422;2023-03-15T08:42:22;101613.16;;;1.54;100.00
64844;BME280;51310;52.198;5.422;2023-03-15T08:44:48;101610.78;;;1.67;100.00
64844;BME280;51310;52.198;5.422;2023-03-15T08:47:13;101611.38;;;1.77;100.00
64844;BME280;51310;52.198;5.422;2023-03-15T08:49:39;101602.56;;;1.86;100.00
64844;BME280;51310;52.198;5.422;2023-03-15T08:52:05;101605.28;;;1.88;100.00
64844;BME280;51310;52.198;5.422;2023-03-15T08:54:31;101600.22;;;1.88;100.00
64844;BME280;51310;52.198;5.422;2023-03-15T08:57:00;101601.81;;;1.93;100.00
64844;BME280;51310;52.198;5.422;2023-03-15T08:59:26;101595.28;;;2.00;100.00
64844;BME280;51310;52.198;5.422;2023-03-15T09:01:52;101599.41;;;2.05;100.00
64844;BME280;51310;52.198;5.422;2023-03-15T09:04:18;101599.13;;;2.10;100.00
64844;BME280;51310;52.198;5.422;2023-03-15T09:06:43;101600.09;;;2.29;100.00
64844;BME280;51310;52.198;5.422;2023-03-15T09:09:09;101596.47;;;2.45;100.00
64844;BME280;51310;52.198;5.422;2023-03-15T09:11:35;101592.25;;;2.51;100.00
64844;BME280;51310;52.198;5.422;2023-03-15T09:14:00;101595.00;;;2.53;100.00
64844;BME280;51310;52.198;5.422;2023-03-15T09:16:26;101597.34;;;2.70;100.00
64844;BME280;51310;52.198;5.422;2023-03-15T09:18:52;101594.53;;;2.74;100.00
64844;BME280;51310;52.198;5.422;2023-03-15T09:21:17;101599.78;;;2.81;100.00
64844;BME280;51310;52.198;5.422;2023-03-15T09:23:43;101600.91;;;2.83;100.00
64844;BME280;51310;52.198;5.422;2023-03-15T09:26:09;101593.28;;;2.83;100.00
64844;BME280;51310;52.198;5.422;2023-03-15T09:28:34;101594.34;;;2.91;100.00
64844;BME280;51310;52.198;5.422;2023-03-15T09:31:04;101594.69;;;2.99;100.00
64844;BME280;51310;52.198;5.422;2023-03-15T09:33:30;101593.50;;;3.03;100.00
64844;BME280;51310;52.198;5.422;2023-03-15T09:35:58;101594.56;;;3.11;100.00
64844;BME280;51310;52.198;5.422;2023-03-15T09:38:23;101598.59;;;3.03;100.00
64844;BME280;51310;52.198;5.422;2023-03-15T09:40:50;101600.44;;;3.22;100.00
64844;BME280;51310;52.198;5.422;2023-03-15T09:44:02;101607.22;;;3.16;100.00
64844;BME280;51310;52.198;5.422;2023-03-15T09:46:42;101607.56;;;3.25;100.00
64844;BME280;51310;52.198;5.422;2023-03-15T09:49:20;101610.59;;;3.22;100.00
64844;BME280;51310;52.198;5.422;2023-03-15T09:52:33;101607.16;;;3.22;100.00
64844;BME280;51310;52.198;5.422;2023-03-15T09:57:55;101603.72;;;3.34;100.00
64844;BME280;51310;52.198;5.422;2023-03-15T10:00:48;101611.41;;;3.47;100.00
64844;BME280;51310;52.198;5.422;2023-03-15T10:03:50;101612.13;;;3.46;100.00
64844;BME280;51310;52.198;5.422;2023-03-15T10:06:25;101608.91;;;3.60;100.00
64844;BME280;51310;52.198;5.422;2023-03-15T10:08:58;101606.66;;;3.56;100.00
64844;BME280;51310;52.198;5.422;2023-03-15T10:11:55;101598.44;;;3.64;100.00
64844;BME280;51310;52.198;5.422;2023-03-15T10:15:02;101593.59;;;3.78;100.00
64844;BME280;51310;52.198;5.422;2023-03-15T10:20:28;101595.97;;;4.02;100.00
64844;BME280;51310;52.198;5.422;2023-03-15T10:22:57;101592.19;;;4.06;100.00
64844;BME280;51310;52.198;5.422;2023-03-15T10:25:27;101586.00;;;4.17;100.00
64844;BME280;51310;52.198;5.422;2023-03-15T10:28:28;101584.47;;;4.24;100.00
64844;BME280;51310;52.198;5.422;2023-03-15T10:30:59;101591.81;;;4.16;100.00
64844;BME280;51310;52.198;5.422;2023-03-15T10:33:35;101604.56;;;4.28;100.00
64844;BME280;51310;52.198;5.422;2023-03-15T10:36:23;101596.91;;;4.28;100.00
64844;BME280;51310;52.198;5.422;2023-03-15T10:38:49;101606.69;;;4.38;100.00
64844;BME280;51310;52.198;5.422;2023-03-15T10:41:39;101615.44;;;4.53;100.00
64844;BME280;51310;52.198;5.422;2023-03-15T10:44:25;101617.41;;;4.48;98.08
64844;BME280;51310;52.198;5.422;2023-03-15T10:47:20;101619.84;;;4.41;96.22
64844;BME280;51310;52.198;5.422;2023-03-15T10:49:47;101639.13;;;4.52;97.83
64844;BME280;51310;52.198;5.422;2023-03-15T10:52:36;101639.63;;;4.49;92.81
64844;BME280;51310;52.198;5.422;2023-03-15T10:55:14;101637.09;;;4.62;96.29
64844;BME280;51310;52.198;5.422;2023-03-15T10:57:53;101650.31;;;4.72;100.00
64844;BME280;51310;52.198;5.422;2023-03-15T11:00:31;101660.72;;;4.61;100.00
64844;BME280;51310;52.198;5.422;2023-03-15T11:03:22;101654.81;;;4.42;96.83
64844;BME280;51310;52.198;5.422;2023-03-15T11:05:52;101653.28;;;4.37;92.85
64844;BME280;51310;52.198;5.422;2023-03-15T11:08:22;101650.16;;;4.58;86.83
64844;BME280;51310;52.198;5.422;2023-03-15T11:10:57;101662.25;;;4.92;94.33
64844;BME280;51310;52.198;5.422;2023-03-15T11:13:25;101663.53;;;5.21;98.09
64844;BME280;51310;52.198;5.422;2023-03-15T11:21:14;101665.59;;;5.44;96.04
64844;BME280;51310;52.198;5.422;2023-03-15T11:23:46;101674.00;;;5.63;92.32
64844;BME280;51310;52.198;5.422;2023-03-15T11:26:23;101672.66;;;5.39;78.76
64844;BME280;51310;52.198;5.422;2023-03-15T11:28:54;101673.25;;;5.44;77.76
64844;BME280;51310;52.198;5.422;2023-03-15T11:31:26;101674.25;;;5.51;81.87
64844;BME280;51310;52.198;5.422;2023-03-15T11:34:03;101669.22;;;5.59;79.65
64844;BME280;51310;52.198;5.422;2023-03-15T11:36:36;101673.06;;;5.42;76.94
64844;BME280;51310;52.198;5.422;2023-03-15T11:39:03;101672.69;;;5.26;73.18
64844;BME280;51310;52.198;5.422;2023-03-15T11:41:55;101668.22;;;5.18;81.57
64844;BME280;51310;52.198;5.422;2023-03-15T11:44:37;101661.00;;;5.08;73.39
64844;BME280;51310;52.198;5.422;2023-03-15T11:49:45;101652.50;;;5.48;89.88
64844;BME280;51310;52.198;5.422;2023-03-15T11:52:17;101654.75;;;5.52;85.76
64844;BME280;51310;52.198;5.422;2023-03-15T11:54:45;101645.13;;;5.57;79.64
64844;BME280;51310;52.198;5.422;2023-03-15T12:05:51;101646.63;;;5.94;76.98
64844;BME280;51310;52.198;5.422;2023-03-15T12:10:59;101653.78;;;6.04;75.54
64844;BME280;51310;52.198;5.422;2023-03-15T12:13:30;101659.75;;;5.98;67.15
64844;BME280;51310;52.198;5.422;2023-03-15T12:15:57;101658.34;;;5.87;67.03
64844;BME280;51310;52.198;5.422;2023-03-15T12:18:40;101657.25;;;5.85;68.64
64844;BME280;51310;52.198;5.422;2023-03-15T12:21:16;101658.91;;;6.04;68.53
64844;BME280;51310;52.198;5.422;2023-03-15T12:23:57;101663.94;;;6.17;63.27
64844;BME280;51310;52.198;5.422;2023-03-15T12:26:47;101664.47;;;6.14;60.53
64844;BME280;51310;52.198;5.422;2023-03-15T12:29:23;101656.16;;;6.23;66.76
64844;BME280;51310;52.198;5.422;2023-03-15T12:32:03;101663.97;;;6.44;69.06
64844;BME280;51310;52.198;5.422;2023-03-15T12:34:46;101665.31;;;6.55;65.77
64844;BME280;51310;52.198;5.422;2023-03-15T12:37:38;101657.25;;;6.52;62.46
64844;BME280;51310;52.198;5.422;2023-03-15T12:56:42;101659.13;;;6.87;59.82
64844;BME280;51310;52.198;5.422;2023-03-15T12:59:29;101664.16;;;7.14;58.29
64844;BME280;51310;52.198;5.422;2023-03-15T13:01:59;101658.44;;;7.03;56.48
64844;BME280;51310;52.198;5.422;2023-03-15T13:04:28;101658.72;;;6.84;57.97
64844;BME280;51310;52.198;5.422;2023-03-15T13:07:21;101665.06;;;6.73;58.01
64844;BME280;51310;52.198;5.422;2023-03-15T13:12:52;101654.03;;;6.60;52.89
64844;BME280;51310;52.198;5.422;2023-03-15T13:15:22;101648.31;;;6.55;55.14
64844;BME280;51310;52.198;5.422;2023-03-15T13:17:58;101647.41;;;6.55;57.69
64844;BME280;51310;52.198;5.422;2023-03-15T13:23:48;101641.44;;;6.34;55.44
64844;BME280;51310;52.198;5.422;2023-03-15T13:26:40;101642.34;;;6.62;60.43
64844;BME280;51310;52.198;5.422;2023-03-15T13:29:17;101650.56;;;6.60;58.48
64844;BME280;51310;52.198;5.422;2023-03-15T13:31:46;101643.00;;;6.54;60.32
64844;BME280;51310;52.198;5.422;2023-03-15T13:34:24;101647.19;;;6.46;59.29
64844;BME280;51310;52.198;5.422;2023-03-15T13:36:57;101645.56;;;6.54;58.93
64844;BME280;51310;52.198;5.422;2023-03-15T13:39:31;101648.31;;;6.83;63.24
64844;BME280;51310;52.198;5.422;2023-03-15T13:42:15;101650.91;;;6.90;58.77
64844;BME280;51310;52.198;5.422;2023-03-15T13:44:41;101652.09;;;6.72;59.73
64844;BME280;51310;52.198;5.422;2023-03-15T13:47:07;101647.13;;;6.66;60.35
64844;BME280;51310;52.198;5.422;2023-03-15T13:49:33;101647.13;;;6.66;59.48
64844;BME280;51310;52.198;5.422;2023-03-15T13:52:05;101651.22;;;6.78;57.73
64844;BME280;51310;52.198;5.422;2023-03-15T13:54:37;101647.22;;;6.88;55.80